Abingdon, Illinois
Current Conditions -  °F | °C
As of 10:15 AM on Monday 26 Jan 2015 (Local Time) from KGBG Reporting Station
Light Snow Light Snow  
Wind Chill: 15°   Ceiling: 1100
Heat Index: 24°   Visibility: 1.5mi
Dew Point: 22°   Wind: 8mph
Humidity: 93%   Direction: 160°SSE
Pressure: 29.94"   Gusts: NA
Location:  40.8°N, 90.4°W
Report Text: KGBG 261615Z AUTO 16007KT 1 1/2SM -SN BKN011 BKN017 OVC025 M04/M05 A2994 RMK AO2 T10441054
Loading
Personal Weather Stations






























Interactive Weather Map New forecast layout! Learn more

10-Day Weather Forecast

Advertisements
Track Severe Weather on mobile